sensor_id;sensor_type;location;lat;lon;timestamp;temperature;humidity
7155;DHT22;3619;53.784;10.440;2022-12-18T00:00:20;-5.20;99.90
7155;DHT22;3619;53.784;10.440;2022-12-18T00:02:50;-5.30;99.90
7155;DHT22;3619;53.784;10.440;2022-12-18T00:05:17;-5.20;99.90
7155;DHT22;3619;53.784;10.440;2022-12-18T00:07:50;-5.20;99.90
7155;DHT22;3619;53.784;10.440;2022-12-18T00:10:21;-5.20;99.90
7155;DHT22;3619;53.784;10.440;2022-12-18T00:13:49;-5.10;99.90
7155;DHT22;3619;53.784;10.440;2022-12-18T00:16:06;-5.20;99.90
7155;DHT22;3619;53.784;10.440;2022-12-18T00:18:59;-5.30;99.90
7155;DHT22;3619;53.784;10.440;2022-12-18T00:21:33;-5.30;99.90
7155;DHT22;3619;53.784;10.440;2022-12-18T00:24:00;-5.30;99.90
7155;DHT22;3619;53.784;10.440;2022-12-18T00:26:32;-5.20;99.90
7155;DHT22;3619;53.784;10.440;2022-12-18T00:29:04;-5.30;99.90
7155;DHT22;3619;53.784;10.440;2022-12-18T00:31:36;-5.20;99.90
7155;DHT22;3619;53.784;10.440;2022-12-18T00:34:33;-5.20;99.90
7155;DHT22;3619;53.784;10.440;2022-12-18T00:37:35;-5.20;99.90
7155;DHT22;3619;53.784;10.440;2022-12-18T00:40:18;-5.20;99.90
7155;DHT22;3619;53.784;10.440;2022-12-18T00:42:50;-5.20;99.90
7155;DHT22;3619;53.784;10.440;2022-12-18T00:45:26;-5.30;99.90
7155;DHT22;3619;53.784;10.440;2022-12-18T00:47:53;-5.20;99.90
7155;DHT22;3619;53.784;10.440;2022-12-18T00:50:21;-5.20;99.90
7155;DHT22;3619;53.784;10.440;2022-12-18T00:52:48;-5.20;99.90
7155;DHT22;3619;53.784;10.440;2022-12-18T00:55:16;-5.30;99.90
7155;DHT22;3619;53.784;10.440;2022-12-18T00:57:43;-5.40;99.90
7155;DHT22;3619;53.784;10.440;2022-12-18T01:00:13;-5.30;99.90
7155;DHT22;3619;53.784;10.440;2022-12-18T01:02:43;-5.30;99.90
7155;DHT22;3619;53.784;10.440;2022-12-18T01:05:12;-5.30;99.90
7155;DHT22;3619;53.784;10.440;2022-12-18T01:07:39;-5.30;99.90
7155;DHT22;3619;53.784;10.440;2022-12-18T01:10:08;-5.30;99.90
7155;DHT22;3619;53.784;10.440;2022-12-18T01:12:40;-5.30;99.90
7155;DHT22;3619;53.784;10.440;2022-12-18T01:15:07;-5.30;99.90
7155;DHT22;3619;53.784;10.440;2022-12-18T01:17:36;-5.40;99.90
7155;DHT22;3619;53.784;10.440;2022-12-18T01:20:04;-5.50;99.90
7155;DHT22;3619;53.784;10.440;2022-12-18T01:22:41;-5.50;99.90
7155;DHT22;3619;53.784;10.440;2022-12-18T01:25:08;-5.40;99.90
7155;DHT22;3619;53.784;10.440;2022-12-18T01:27:35;-5.40;99.90
7155;DHT22;3619;53.784;10.440;2022-12-18T01:30:03;-5.40;99.90
7155;DHT22;3619;53.784;10.440;2022-12-18T01:32:30;-5.40;99.90
7155;DHT22;3619;53.784;10.440;2022-12-18T01:34:59;-5.40;99.90
7155;DHT22;3619;53.784;10.440;2022-12-18T01:37:35;-5.40;99.90
7155;DHT22;3619;53.784;10.440;2022-12-18T01:40:03;-5.50;99.90
7155;DHT22;3619;53.784;10.440;2022-12-18T01:42:30;-5.60;99.90
7155;DHT22;3619;53.784;10.440;2022-12-18T01:45:03;-5.50;99.90
7155;DHT22;3619;53.784;10.440;2022-12-18T01:47:33;-5.50;99.90
7155;DHT22;3619;53.784;10.440;2022-12-18T01:50:06;-5.60;99.90
7155;DHT22;3619;53.784;10.440;2022-12-18T01:52:36;-5.60;99.90
7155;DHT22;3619;53.784;10.440;2022-12-18T01:55:13;-5.60;99.90
7155;DHT22;3619;53.784;10.440;2022-12-18T01:58:14;-5.60;99.90
7155;DHT22;3619;53.784;10.440;2022-12-18T02:00:46;-5.70;99.90
7155;DHT22;3619;53.784;10.440;2022-12-18T02:03:18;-5.60;99.90
7155;DHT22;3619;53.784;10.440;2022-12-18T02:05:50;-5.70;99.90
7155;DHT22;3619;53.784;10.440;2022-12-18T02:08:30;-5.70;99.90
7155;DHT22;3619;53.784;10.440;2022-12-18T02:11:08;-5.70;99.90
7155;DHT22;3619;53.784;10.440;2022-12-18T02:13:44;-5.90;99.90
7155;DHT22;3619;53.784;10.440;2022-12-18T02:16:21;-5.80;99.90
7155;DHT22;3619;53.784;10.440;2022-12-18T02:18:54;-5.80;99.90
7155;DHT22;3619;53.784;10.440;2022-12-18T02:21:32;-5.80;99.90
7155;DHT22;3619;53.784;10.440;2022-12-18T02:24:14;-5.80;99.90
7155;DHT22;3619;53.784;10.440;2022-12-18T02:26:50;-5.90;99.90
7155;DHT22;3619;53.784;10.440;2022-12-18T02:29:22;-5.90;99.90
7155;DHT22;3619;53.784;10.440;2022-12-18T02:31:54;-6.00;99.90
7155;DHT22;3619;53.784;10.440;2022-12-18T02:34:26;-5.90;99.90
7155;DHT22;3619;53.784;10.440;2022-12-18T02:36:55;-5.90;99.90
7155;DHT22;3619;53.784;10.440;2022-12-18T02:39:27;-5.90;99.90
7155;DHT22;3619;53.784;10.440;2022-12-18T02:41:59;-5.90;99.90
7155;DHT22;3619;53.784;10.440;2022-12-18T02:44:28;-5.90;99.90
7155;DHT22;3619;53.784;10.440;2022-12-18T02:46:55;-5.80;99.90
7155;DHT22;3619;53.784;10.440;2022-12-18T02:49:39;-5.90;99.90
7155;DHT22;3619;53.784;10.440;2022-12-18T02:52:15;-6.00;99.90
7155;DHT22;3619;53.784;10.440;2022-12-18T02:54:53;-6.00;99.90
7155;DHT22;3619;53.784;10.440;2022-12-18T02:57:29;-6.00;99.90
7155;DHT22;3619;53.784;10.440;2022-12-18T03:00:04;-6.00;99.90
7155;DHT22;3619;53.784;10.440;2022-12-18T03:02:53;-6.00;99.90
7155;DHT22;3619;53.784;10.440;2022-12-18T03:05:31;-6.10;99.90
7155;DHT22;3619;53.784;10.440;2022-12-18T03:08:06;-6.00;99.90
7155;DHT22;3619;53.784;10.440;2022-12-18T03:10:43;-6.00;99.90
7155;DHT22;3619;53.784;10.440;2022-12-18T03:13:23;-6.00;99.90
7155;DHT22;3619;53.784;10.440;2022-12-18T03:15:57;-6.00;99.90
7155;DHT22;3619;53.784;10.440;2022-12-18T03:18:30;-5.90;99.90
7155;DHT22;3619;53.784;10.440;2022-12-18T03:21:04;-5.90;99.90
7155;DHT22;3619;53.784;10.440;2022-12-18T03:23:35;-5.90;99.90
7155;DHT22;3619;53.784;10.440;2022-12-18T03:26:07;-5.90;99.90
7155;DHT22;3619;53.784;10.440;2022-12-18T03:28:38;-5.90;99.90
7155;DHT22;3619;53.784;10.440;2022-12-18T03:31:09;-5.90;99.90
7155;DHT22;3619;53.784;10.440;2022-12-18T03:33:41;-6.00;99.90
7155;DHT22;3619;53.784;10.440;2022-12-18T03:36:12;-6.00;99.90
7155;DHT22;3619;53.784;10.440;2022-12-18T03:38:42;-6.10;99.90
7155;DHT22;3619;53.784;10.440;2022-12-18T03:41:16;-6.10;99.90
7155;DHT22;3619;53.784;10.440;2022-12-18T03:43:59;-6.20;99.90
7155;DHT22;3619;53.784;10.440;2022-12-18T03:46:41;-6.20;99.90
7155;DHT22;3619;53.784;10.440;2022-12-18T03:49:17;-6.20;99.90
7155;DHT22;3619;53.784;10.440;2022-12-18T03:51:48;-6.20;99.90
7155;DHT22;3619;53.784;10.440;2022-12-18T03:54:45;-6.30;99.90
7155;DHT22;3619;53.784;10.440;2022-12-18T03:57:15;-6.30;99.90
7155;DHT22;3619;53.784;10.440;2022-12-18T03:59:56;-6.40;99.90
7155;DHT22;3619;53.784;10.440;2022-12-18T04:02:38;-6.40;99.90
7155;DHT22;3619;53.784;10.440;2022-12-18T04:05:10;-6.40;99.90
7155;DHT22;3619;53.784;10.440;2022-12-18T04:07:38;-6.40;99.90
7155;DHT22;3619;53.784;10.440;2022-12-18T04:10:07;-6.50;99.90
7155;DHT22;3619;53.784;10.440;2022-12-18T04:12:37;-6.50;99.90
7155;DHT22;3619;53.784;10.440;2022-12-18T04:15:07;-6.60;99.90
7155;DHT22;3619;53.784;10.440;2022-12-18T04:17:34;-6.60;99.90
7155;DHT22;3619;53.784;10.440;2022-12-18T04:20:01;-6.60;99.90
7155;DHT22;3619;53.784;10.440;2022-12-18T04:22:28;-6.70;99.90
7155;DHT22;3619;53.784;10.440;2022-12-18T04:24:55;-6.70;99.90
7155;DHT22;3619;53.784;10.440;2022-12-18T04:27:22;-6.70;99.90
7155;DHT22;3619;53.784;10.440;2022-12-18T04:29:50;-6.80;99.90
7155;DHT22;3619;53.784;10.440;2022-12-18T04:32:18;-6.80;99.90
7155;DHT22;3619;53.784;10.440;2022-12-18T04:34:45;-6.70;99.90
7155;DHT22;3619;53.784;10.440;2022-12-18T04:37:11;-6.70;99.90
7155;DHT22;3619;53.784;10.440;2022-12-18T04:39:38;-6.60;99.90
7155;DHT22;3619;53.784;10.440;2022-12-18T04:42:07;-6.70;99.90
7155;DHT22;3619;53.784;10.440;2022-12-18T04:44:36;-6.70;99.90
7155;DHT22;3619;53.784;10.440;2022-12-18T04:47:05;-6.90;99.90
7155;DHT22;3619;53.784;10.440;2022-12-18T04:49:41;-6.80;99.90
7155;DHT22;3619;53.784;10.440;2022-12-18T04:52:33;-6.80;99.90
7155;DHT22;3619;53.784;10.440;2022-12-18T04:55:03;-6.90;99.90
7155;DHT22;3619;53.784;10.440;2022-12-18T04:57:30;-6.90;99.90
7155;DHT22;3619;53.784;10.440;2022-12-18T04:59:59;-6.90;99.90
7155;DHT22;3619;53.784;10.440;2022-12-18T05:02:27;-6.90;99.90
7155;DHT22;3619;53.784;10.440;2022-12-18T05:04:55;-6.90;99.90
7155;DHT22;3619;53.784;10.440;2022-12-18T05:07:23;-6.90;99.90
7155;DHT22;3619;53.784;10.440;2022-12-18T05:09:50;-7.00;99.90
7155;DHT22;3619;53.784;10.440;2022-12-18T05:12:17;-6.90;99.90
7155;DHT22;3619;53.784;10.440;2022-12-18T05:14:47;-6.90;99.90
7155;DHT22;3619;53.784;10.440;2022-12-18T05:17:14;-7.00;99.90
7155;DHT22;3619;53.784;10.440;2022-12-18T05:19:47;-7.00;99.90
7155;DHT22;3619;53.784;10.440;2022-12-18T05:22:17;-7.00;99.90
7155;DHT22;3619;53.784;10.440;2022-12-18T05:24:51;-7.00;99.90
7155;DHT22;3619;53.784;10.440;2022-12-18T05:27:20;-7.00;99.90
7155;DHT22;3619;53.784;10.440;2022-12-18T05:29:47;-7.00;99.90
7155;DHT22;3619;53.784;10.440;2022-12-18T05:32:14;-6.90;99.90
7155;DHT22;3619;53.784;10.440;2022-12-18T05:34:42;-7.10;99.90
7155;DHT22;3619;53.784;10.440;2022-12-18T05:37:11;-7.00;99.90
7155;DHT22;3619;53.784;10.440;2022-12-18T05:40:03;-7.10;99.90
7155;DHT22;3619;53.784;10.440;2022-12-18T05:42:30;-7.10;99.90
7155;DHT22;3619;53.784;10.440;2022-12-18T05:44:57;-7.10;99.90
7155;DHT22;3619;53.784;10.440;2022-12-18T05:47:26;-7.10;99.90
7155;DHT22;3619;53.784;10.440;2022-12-18T05:49:53;-7.10;99.90
7155;DHT22;3619;53.784;10.440;2022-12-18T05:52:23;-7.10;99.90
7155;DHT22;3619;53.784;10.440;2022-12-18T05:54:51;-7.10;99.90
7155;DHT22;3619;53.784;10.440;2022-12-18T05:57:28;-7.10;99.90
7155;DHT22;3619;53.784;10.440;2022-12-18T05:59:57;-7.10;99.90
7155;DHT22;3619;53.784;10.440;2022-12-18T06:02:25;-7.10;99.90
7155;DHT22;3619;53.784;10.440;2022-12-18T06:04:53;-7.10;99.90
7155;DHT22;3619;53.784;10.440;2022-12-18T06:07:21;-7.10;99.90
7155;DHT22;3619;53.784;10.440;2022-12-18T06:09:49;-7.10;99.90
7155;DHT22;3619;53.784;10.440;2022-12-18T06:12:15;-7.10;99.90
7155;DHT22;3619;53.784;10.440;2022-12-18T06:15:01;-7.10;99.90
7155;DHT22;3619;53.784;10.440;2022-12-18T06:17:38;-7.20;99.90
7155;DHT22;3619;53.784;10.440;2022-12-18T06:20:51;-7.20;99.90
7155;DHT22;3619;53.784;10.440;2022-12-18T06:24:03;-7.20;99.90
7155;DHT22;3619;53.784;10.440;2022-12-18T06:26:25;-7.20;99.90
7155;DHT22;3619;53.784;10.440;2022-12-18T06:28:51;-7.20;99.90
7155;DHT22;3619;53.784;10.440;2022-12-18T06:31:19;-7.20;99.90
7155;DHT22;3619;53.784;10.440;2022-12-18T06:33:46;-7.20;99.90
7155;DHT22;3619;53.784;10.440;2022-12-18T06:36:13;-7.20;99.90
7155;DHT22;3619;53.784;10.440;2022-12-18T06:38:43;-7.20;99.90
7155;DHT22;3619;53.784;10.440;2022-12-18T06:41:11;-7.20;99.90
7155;DHT22;3619;53.784;10.440;2022-12-18T06:43:39;-7.20;99.90
7155;DHT22;3619;53.784;10.440;2022-12-18T06:46:11;-7.20;99.90
7155;DHT22;3619;53.784;10.440;2022-12-18T06:48:42;-7.20;99.90
7155;DHT22;3619;53.784;10.440;2022-12-18T06:51:11;-7.30;99.90
7155;DHT22;3619;53.784;10.440;2022-12-18T06:53:38;-7.20;99.90
7155;DHT22;3619;53.784;10.440;2022-12-18T06:56:06;-7.30;99.90
7155;DHT22;3619;53.784;10.440;2022-12-18T06:58:37;-7.30;99.90
7155;DHT22;3619;53.784;10.440;2022-12-18T07:01:08;-7.40;99.90
7155;DHT22;3619;53.784;10.440;2022-12-18T07:03:36;-7.40;99.90
7155;DHT22;3619;53.784;10.440;2022-12-18T07:06:11;-7.40;99.90
7155;DHT22;3619;53.784;10.440;2022-12-18T07:08:41;-7.40;99.90
7155;DHT22;3619;53.784;10.440;2022-12-18T07:11:08;-7.50;99.90
7155;DHT22;3619;53.784;10.440;2022-12-18T07:13:35;-7.50;99.90
7155;DHT22;3619;53.784;10.440;2022-12-18T07:16:10;-7.50;99.90
7155;DHT22;3619;53.784;10.440;2022-12-18T07:18:36;-7.50;99.90
7155;DHT22;3619;53.784;10.440;2022-12-18T07:21:07;-7.50;99.90
7155;DHT22;3619;53.784;10.440;2022-12-18T07:23:35;-7.50;99.90
7155;DHT22;3619;53.784;10.440;2022-12-18T07:26:04;-7.50;99.90
7155;DHT22;3619;53.784;10.440;2022-12-18T07:28:32;-7.50;99.90
7155;DHT22;3619;53.784;10.440;2022-12-18T07:31:04;-7.50;99.90
7155;DHT22;3619;53.784;10.440;2022-12-18T07:33:34;-7.50;99.90
7155;DHT22;3619;53.784;10.440;2022-12-18T07:36:10;-7.50;99.90
7155;DHT22;3619;53.784;10.440;2022-12-18T07:38:37;-7.50;99.90
7155;DHT22;3619;53.784;10.440;2022-12-18T07:41:08;-7.50;99.90
7155;DHT22;3619;53.784;10.440;2022-12-18T07:43:37;-7.50;99.90
7155;DHT22;3619;53.784;10.440;2022-12-18T07:46:07;-7.50;99.90
7155;DHT22;3619;53.784;10.440;2022-12-18T07:48:35;-7.50;99.90
7155;DHT22;3619;53.784;10.440;2022-12-18T07:51:05;-7.50;99.90
7155;DHT22;3619;53.784;10.440;2022-12-18T07:53:42;-7.40;99.90
7155;DHT22;3619;53.784;10.440;2022-12-18T07:56:13;-7.40;99.90
7155;DHT22;3619;53.784;10.440;2022-12-18T07:58:41;-7.30;99.90
7155;DHT22;3619;53.784;10.440;2022-12-18T08:01:13;-7.30;99.90
7155;DHT22;3619;53.784;10.440;2022-12-18T08:04:05;-7.30;99.90
7155;DHT22;3619;53.784;10.440;2022-12-18T08:08:11;-7.30;99.90
7155;DHT22;3619;53.784;10.440;2022-12-18T08:09:57;-7.30;99.90
7155;DHT22;3619;53.784;10.440;2022-12-18T08:12:24;-7.30;99.90
7155;DHT22;3619;53.784;10.440;2022-12-18T08:14:50;-7.20;99.90
7155;DHT22;3619;53.784;10.440;2022-12-18T08:17:19;-7.20;99.90
7155;DHT22;3619;53.784;10.440;2022-12-18T08:19:48;-7.10;99.90
7155;DHT22;3619;53.784;10.440;2022-12-18T08:22:14;-7.10;99.90
7155;DHT22;3619;53.784;10.440;2022-12-18T08:24:41;-7.10;99.90
7155;DHT22;3619;53.784;10.440;2022-12-18T08:27:30;-7.00;99.90
7155;DHT22;3619;53.784;10.440;2022-12-18T08:30:44;-6.90;99.90
7155;DHT22;3619;53.784;10.440;2022-12-18T08:33:19;-6.80;99.90
7155;DHT22;3619;53.784;10.440;2022-12-18T08:36:11;-6.70;99.90
7155;DHT22;3619;53.784;10.440;2022-12-18T08:38:45;-6.70;99.90
7155;DHT22;3619;53.784;10.440;2022-12-18T08:41:14;-6.60;99.90
7155;DHT22;3619;53.784;10.440;2022-12-18T08:43:43;-6.60;99.90
7155;DHT22;3619;53.784;10.440;2022-12-18T08:46:32;-6.60;99.90
7155;DHT22;3619;53.784;10.440;2022-12-18T08:49:02;-6.50;99.90
7155;DHT22;3619;53.784;10.440;2022-12-18T08:51:30;-6.50;99.90
7155;DHT22;3619;53.784;10.440;2022-12-18T08:53:59;-6.50;99.90
7155;DHT22;3619;53.784;10.440;2022-12-18T08:56:27;-6.40;99.90
7155;DHT22;3619;53.784;10.440;2022-12-18T08:58:59;-6.40;99.90
7155;DHT22;3619;53.784;10.440;2022-12-18T09:01:26;-6.30;99.90
7155;DHT22;3619;53.784;10.440;2022-12-18T09:03:54;-6.30;99.90
7155;DHT22;3619;53.784;10.440;2022-12-18T09:06:22;-6.20;99.90
7155;DHT22;3619;53.784;10.440;2022-12-18T09:08:50;-6.10;99.90
7155;DHT22;3619;53.784;10.440;2022-12-18T09:11:20;-6.00;99.90
7155;DHT22;3619;53.784;10.440;2022-12-18T09:13:50;-6.00;99.90
7155;DHT22;3619;53.784;10.440;2022-12-18T09:16:21;-6.00;99.90
7155;DHT22;3619;53.784;10.440;2022-12-18T09:19:06;-5.90;99.90
7155;DHT22;3619;53.784;10.440;2022-12-18T09:21:34;-5.80;99.90
7155;DHT22;3619;53.784;10.440;2022-12-18T09:24:03;-5.60;99.90
7155;DHT22;3619;53.784;10.440;2022-12-18T09:26:39;-5.60;99.90
7155;DHT22;3619;53.784;10.440;2022-12-18T09:29:06;-5.50;99.90
7155;DHT22;3619;53.784;10.440;2022-12-18T09:31:40;-5.40;99.90
7155;DHT22;3619;53.784;10.440;2022-12-18T09:34:43;-5.30;99.90
7155;DHT22;3619;53.784;10.440;2022-12-18T09:40:26;-5.00;99.90
7155;DHT22;3619;53.784;10.440;2022-12-18T09:42:59;-4.90;99.90
7155;DHT22;3619;53.784;10.440;2022-12-18T09:45:31;-4.70;99.90
7155;DHT22;3619;53.784;10.440;2022-12-18T09:51:19;-4.50;99.90
7155;DHT22;3619;53.784;10.440;2022-12-18T09:57:05;-4.40;99.90
7155;DHT22;3619;53.784;10.440;2022-12-18T09:59:36;-4.40;99.90
7155;DHT22;3619;53.784;10.440;2022-12-18T10:02:15;-4.30;99.90
7155;DHT22;3619;53.784;10.440;2022-12-18T10:04:56;-4.20;99.90
7155;DHT22;3619;53.784;10.440;2022-12-18T10:07:35;-4.10;99.90
7155;DHT22;3619;53.784;10.440;2022-12-18T10:10:07;-4.10;99.90
7155;DHT22;3619;53.784;10.440;2022-12-18T10:12:43;-4.00;99.90
7155;DHT22;3619;53.784;10.440;2022-12-18T10:15:20;-4.00;99.90
7155;DHT22;3619;53.784;10.440;2022-12-18T10:17:55;-3.90;99.90
7155;DHT22;3619;53.784;10.440;2022-12-18T10:20:54;-4.00;99.90
7155;DHT22;3619;53.784;10.440;2022-12-18T10:23:55;-3.90;99.90
7155;DHT22;3619;53.784;10.440;2022-12-18T10:29:47;-4.20;99.90
7155;DHT22;3619;53.784;10.440;2022-12-18T10:32:20;-4.20;99.90
7155;DHT22;3619;53.784;10.440;2022-12-18T10:34:59;-4.10;99.90
7155;DHT22;3619;53.784;10.440;2022-12-18T10:38:00;-4.00;99.90
7155;DHT22;3619;53.784;10.440;2022-12-18T10:44:17;-4.40;99.90
7155;DHT22;3619;53.784;10.440;2022-12-18T10:47:05;-4.30;99.90
7155;DHT22;3619;53.784;10.440;2022-12-18T10:50:50;-4.40;99.90
7155;DHT22;3619;53.784;10.440;2022-12-18T10:56:29;-4.10;99.90
7155;DHT22;3619;53.784;10.440;2022-12-18T10:59:54;-4.00;99.90
7155;DHT22;3619;53.784;10.440;2022-12-18T11:02:33;-4.10;99.90
7155;DHT22;3619;53.784;10.440;2022-12-18T11:05:01;-4.00;99.90
7155;DHT22;3619;53.784;10.440;2022-12-18T11:07:48;-3.90;99.90
7155;DHT22;3619;53.784;10.440;2022-12-18T11:11:02;-3.90;99.90
7155;DHT22;3619;53.784;10.440;2022-12-18T11:13:29;-4.00;99.90
7155;DHT22;3619;53.784;10.440;2022-12-18T11:19:39;-4.10;99.90
7155;DHT22;3619;53.784;10.440;2022-12-18T11:23:11;-4.00;99.90
7155;DHT22;3619;53.784;10.440;2022-12-18T11:28:25;-3.80;99.90
7155;DHT22;3619;53.784;10.440;2022-12-18T11:39:18;-4.00;99.90
7155;DHT22;3619;53.784;10.440;2022-12-18T11:41:52;-4.00;99.90
7155;DHT22;3619;53.784;10.440;2022-12-18T11:44:38;-3.90;99.90
7155;DHT22;3619;53.784;10.440;2022-12-18T11:47:19;-3.80;99.90
7155;DHT22;3619;53.784;10.440;2022-12-18T11:49:49;-3.90;99.90
7155;DHT22;3619;53.784;10.440;2022-12-18T11:52:21;-3.80;99.90
7155;DHT22;3619;53.784;10.440;2022-12-18T11:54:58;-3.80;99.90
7155;DHT22;3619;53.784;10.440;2022-12-18T11:57:36;-3.60;99.90
7155;DHT22;3619;53.784;10.440;2022-12-18T12:00:12;-3.40;99.90
7155;DHT22;3619;53.784;10.440;2022-12-18T12:03:03;-3.30;99.90
7155;DHT22;3619;53.784;10.440;2022-12-18T12:06:37;-3.20;99.90
7155;DHT22;3619;53.784;10.440;2022-12-18T12:16:21;-3.00;99.90
7155;DHT22;3619;53.784;10.440;2022-12-18T12:19:12;-3.00;99.90
7155;DHT22;3619;53.784;10.440;2022-12-18T12:21:46;-2.90;99.90
7155;DHT22;3619;53.784;10.440;2022-12-18T12:24:31;-3.00;99.90
7155;DHT22;3619;53.784;10.440;2022-12-18T12:27:19;-3.10;99.90
7155;DHT22;3619;53.784;10.440;2022-12-18T12:30:09;-3.10;99.90
7155;DHT22;3619;53.784;10.440;2022-12-18T12:32:57;-3.10;99.90
7155;DHT22;3619;53.784;10.440;2022-12-18T12:35:34;-3.00;99.90
7155;DHT22;3619;53.784;10.440;2022-12-18T12:38:10;-2.90;99.90
7155;DHT22;3619;53.784;10.440;2022-12-18T12:40:42;-3.00;99.90
7155;DHT22;3619;53.784;10.440;2022-12-18T12:43:21;-3.00;99.90
7155;DHT22;3619;53.784;10.440;2022-12-18T12:45:52;-3.10;99.90
7155;DHT22;3619;53.784;10.440;2022-12-18T12:48:31;-3.20;99.90
7155;DHT22;3619;53.784;10.440;2022-12-18T12:51:11;-3.30;99.90
7155;DHT22;3619;53.784;10.440;2022-12-18T12:53:41;-3.30;99.90
7155;DHT22;3619;53.784;10.440;2022-12-18T12:56:11;-3.40;99.90
7155;DHT22;3619;53.784;10.440;2022-12-18T12:58:58;-3.50;99.90
7155;DHT22;3619;53.784;10.440;2022-12-18T13:01:35;-3.40;99.90
7155;DHT22;3619;53.784;10.440;2022-12-18T13:04:17;-3.50;99.90
7155;DHT22;3619;53.784;10.440;2022-12-18T13:06:52;-3.50;99.90
7155;DHT22;3619;53.784;10.440;2022-12-18T13:09:20;-3.50;99.90
7155;DHT22;3619;53.784;10.440;2022-12-18T13:11:48;-3.50;99.90
7155;DHT22;3619;53.784;10.440;2022-12-18T13:14:36;-3.40;99.90
7155;DHT22;3619;53.784;10.440;2022-12-18T13:17:28;-3.50;99.90
7155;DHT22;3619;53.784;10.440;2022-12-18T13:20:10;-3.40;99.90
7155;DHT22;3619;53.784;10.440;2022-12-18T13:22:43;-3.40;99.90
7155;DHT22;3619;53.784;10.440;2022-12-18T13:25:31;-3.40;99.90
7155;DHT22;3619;53.784;10.440;2022-12-18T13:28:07;-3.40;99.90
7155;DHT22;3619;53.784;10.440;2022-12-18T13:30:52;-3.40;99.90
7155;DHT22;3619;53.784;10.440;2022-12-18T13:33:41;-3.30;99.90
7155;DHT22;3619;53.784;10.440;2022-12-18T13:36:28;-3.30;99.90
7155;DHT22;3619;53.784;10.440;2022-12-18T13:42:39;-3.40;99.90
7155;DHT22;3619;53.784;10.440;2022-12-18T13:45:41;-3.40;99.90
7155;DHT22;3619;53.784;10.440;2022-12-18T13:48:22;-3.50;99.90
7155;DHT22;3619;53.784;10.440;2022-12-18T13:50:55;-3.50;99.90
7155;DHT22;3619;53.784;10.440;2022-12-18T13:53:29;-3.50;99.90
7155;DHT22;3619;53.784;10.440;2022-12-18T13:56:04;-3.50;99.90
7155;DHT22;3619;53.784;10.440;2022-12-18T13:58:35;-3.60;99.90
7155;DHT22;3619;53.784;10.440;2022-12-18T14:01:01;-3.70;99.90
7155;DHT22;3619;53.784;10.440;2022-12-18T14:03:30;-3.80;99.90
7155;DHT22;3619;53.784;10.440;2022-12-18T14:06:03;-3.80;99.90
7155;DHT22;3619;53.784;10.440;2022-12-18T14:08:39;-3.90;99.90
7155;DHT22;3619;53.784;10.440;2022-12-18T14:11:07;-3.90;99.90
7155;DHT22;3619;53.784;10.440;2022-12-18T14:13:44;-3.90;99.90
7155;DHT22;3619;53.784;10.440;2022-12-18T14:16:14;-4.00;99.90
7155;DHT22;3619;53.784;10.440;2022-12-18T14:18:45;-4.00;99.90
7155;DHT22;3619;53.784;10.440;2022-12-18T14:21:21;-4.00;99.90
7155;DHT22;3619;53.784;10.440;2022-12-18T14:24:05;-4.10;99.90
7155;DHT22;3619;53.784;10.440;2022-12-18T14:26:35;-4.10;99.90
7155;DHT22;3619;53.784;10.440;2022-12-18T14:29:19;-4.20;99.90
7155;DHT22;3619;53.784;10.440;2022-12-18T14:32:06;-4.20;99.90
7155;DHT22;3619;53.784;10.440;2022-12-18T14:34:35;-4.20;99.90
7155;DHT22;3619;53.784;10.440;2022-12-18T14:37:01;-4.20;99.90
7155;DHT22;3619;53.784;10.440;2022-12-18T14:39:59;-4.20;99.90
7155;DHT22;3619;53.784;10.440;2022-12-18T14:42:28;-4.20;99.90
7155;DHT22;3619;53.784;10.440;2022-12-18T14:45:32;-4.30;99.90
7155;DHT22;3619;53.784;10.440;2022-12-18T14:48:01;-4.30;99.90
7155;DHT22;3619;53.784;10.440;2022-12-18T14:50:32;-4.30;99.90
7155;DHT22;3619;53.784;10.440;2022-12-18T14:53:00;-4.30;99.90
7155;DHT22;3619;53.784;10.440;2022-12-18T14:55:34;-4.30;99.90
7155;DHT22;3619;53.784;10.440;2022-12-18T14:58:35;-4.30;99.90
7155;DHT22;3619;53.784;10.440;2022-12-18T15:01:58;-4.40;99.90
7155;DHT22;3619;53.784;10.440;2022-12-18T15:04:47;-4.40;99.90
7155;DHT22;3619;53.784;10.440;2022-12-18T15:07:24;-4.40;99.90
7155;DHT22;3619;53.784;10.440;2022-12-18T15:10:15;-4.40;99.90
7155;DHT22;3619;53.784;10.440;2022-12-18T15:13:21;-4.40;99.90
7155;DHT22;3619;53.784;10.440;2022-12-18T15:15:57;-4.40;99.90
7155;DHT22;3619;53.784;10.440;2022-12-18T15:18:56;-4.40;99.90
7155;DHT22;3619;53.784;10.440;2022-12-18T15:25:26;-4.40;99.90
7155;DHT22;3619;53.784;10.440;2022-12-18T15:28:44;-4.50;99.90
7155;DHT22;3619;53.784;10.440;2022-12-18T15:31:38;-4.50;99.90
7155;DHT22;3619;53.784;10.440;2022-12-18T15:34:17;-4.60;99.90
7155;DHT22;3619;53.784;10.440;2022-12-18T15:36:50;-4.50;99.90
7155;DHT22;3619;53.784;10.440;2022-12-18T15:39:58;-4.50;99.90
7155;DHT22;3619;53.784;10.440;2022-12-18T15:42:53;-4.60;99.90
7155;DHT22;3619;53.784;10.440;2022-12-18T15:45:49;-4.60;99.90
7155;DHT22;3619;53.784;10.440;2022-12-18T15:48:53;-4.60;99.90
7155;DHT22;3619;53.784;10.440;2022-12-18T15:51:36;-4.50;99.90
7155;DHT22;3619;53.784;10.440;2022-12-18T15:54:20;-4.50;99.90
7155;DHT22;3619;53.784;10.440;2022-12-18T15:57:29;-4.50;99.90
7155;DHT22;3619;53.784;10.440;2022-12-18T16:04:28;-4.60;99.90
7155;DHT22;3619;53.784;10.440;2022-12-18T16:07:40;-4.50;99.90
7155;DHT22;3619;53.784;10.440;2022-12-18T16:12:54;-4.50;99.90
7155;DHT22;3619;53.784;10.440;2022-12-18T16:15:40;-4.50;99.90
7155;DHT22;3619;53.784;10.440;2022-12-18T16:18:56;-4.50;99.90
7155;DHT22;3619;53.784;10.440;2022-12-18T16:21:24;-4.60;99.90
7155;DHT22;3619;53.784;10.440;2022-12-18T16:24:26;-4.40;99.90
7155;DHT22;3619;53.784;10.440;2022-12-18T16:27:10;-4.40;99.90
7155;DHT22;3619;53.784;10.440;2022-12-18T16:30:17;-4.40;99.90
7155;DHT22;3619;53.784;10.440;2022-12-18T16:32:36;-4.40;99.90
7155;DHT22;3619;53.784;10.440;2022-12-18T16:35:05;-4.30;99.90
7155;DHT22;3619;53.784;10.440;2022-12-18T16:37:33;-4.20;99.90
7155;DHT22;3619;53.784;10.440;2022-12-18T16:40:00;-4.30;99.90
7155;DHT22;3619;53.784;10.440;2022-12-18T16:45:52;-4.30;99.90
7155;DHT22;3619;53.784;10.440;2022-12-18T16:48:34;-4.20;99.90
7155;DHT22;3619;53.784;10.440;2022-12-18T16:51:03;-4.20;99.90
7155;DHT22;3619;53.784;10.440;2022-12-18T16:53:32;-4.20;99.90
7155;DHT22;3619;53.784;10.440;2022-12-18T16:56:15;-4.20;99.90
7155;DHT22;3619;53.784;10.440;2022-12-18T16:58:56;-4.20;99.90
7155;DHT22;3619;53.784;10.440;2022-12-18T17:01:29;-4.10;99.90
7155;DHT22;3619;53.784;10.440;2022-12-18T17:04:17;-4.10;99.90
7155;DHT22;3619;53.784;10.440;2022-12-18T17:10:06;-4.10;99.90
7155;DHT22;3619;53.784;10.440;2022-12-18T17:13:08;-4.00;99.90
7155;DHT22;3619;53.784;10.440;2022-12-18T17:16:36;-4.10;99.90
7155;DHT22;3619;53.784;10.440;2022-12-18T17:19:53;-4.10;99.90
7155;DHT22;3619;53.784;10.440;2022-12-18T17:22:46;-4.00;99.90
7155;DHT22;3619;53.784;10.440;2022-12-18T17:25:13;-4.00;99.90
7155;DHT22;3619;53.784;10.440;2022-12-18T17:28:03;-4.00;99.90
7155;DHT22;3619;53.784;10.440;2022-12-18T17:30:49;-3.90;99.90
7155;DHT22;3619;53.784;10.440;2022-12-18T17:33:44;-3.90;99.90
7155;DHT22;3619;53.784;10.440;2022-12-18T17:36:42;-3.90;99.90
7155;DHT22;3619;53.784;10.440;2022-12-18T17:39:18;-3.90;99.90
7155;DHT22;3619;53.784;10.440;2022-12-18T17:41:49;-3.80;99.90
7155;DHT22;3619;53.784;10.440;2022-12-18T17:44:17;-3.80;99.90
7155;DHT22;3619;53.784;10.440;2022-12-18T17:47:05;-3.80;99.90
7155;DHT22;3619;53.784;10.440;2022-12-18T17:50:06;-3.70;99.90